PAMR/MRI METAR and TAF weather

Enter ICAO airport designator
Station Type Date Time Source
PAMR METAR 2021/05/15 00:53 UTC NOAA

PAMR 150053Z 14008KT 10SM BKN070 14/M03 A2982 RMK AO2 SLP098 T01441028 $


Station Type Date Time Source
PAMR Decoded METAR 2021/05/15 00:53 UTC NOAA

ANCHORAGE MERRILL FIELD, AK, United States (PAMR) 61-13N 149-51W
May 14, 2021 - 08:53 PM EDT / 2021.05.15 0053 UTC
Wind: from the SE (140 degrees) at 9 MPH (8 KT):0
Visibility: 10 mile(s):0
Sky conditions: mostly cloudy
Temperature: 57.9 F (14.4 C)
Dew Point: 27.0 F (-2.8 C)
Relative Humidity: 30%
Pressure (altimeter): 29.82 in. Hg (1009 hPa)
ob: PAMR 150053Z 14008KT 10SM BKN070 14/M03 A2982 RMK AO2 SLP098 T01441028
cycle: 1

Station Type Date Time Source
PAMR TAF UTC NOAA

Error!

Example: see airport list